Terminal Aerodrome Forecast
Issued by NWS

Home | Current Version | Previous Version | Text Only | Print | Product List | Glossary On
Versions: 1 2 3 4 5 6 7 8 9 10 11 12 13 14 15 16 17 18 19 20 21 22 23 24 25
000
FTUS46 KLOX 290258 AAA
TAFOXR
TAF AMD
KOXR 290258Z 2903/2924 29005KT P6SM FEW200
     FM291200 VRB03KT 6SM BR BKN005
     FM291700 27006KT P6SM FEW200
     FM291900 27012KT P6SM FEW200=

USA.gov is the U.S. government's official web portal to all federal, state and local government web resources and services.